sensor_id;sensor_type;location;lat;lon;timestamp;temperature;humidity
1359;DHT22;673;48.098;14.422;2022-08-30T00:01:59;15.50;99.90
1359;DHT22;673;48.098;14.422;2022-08-30T00:04:26;15.40;99.90
1359;DHT22;673;48.098;14.422;2022-08-30T00:06:53;15.50;99.90
1359;DHT22;673;48.098;14.422;2022-08-30T00:09:21;15.50;99.90
1359;DHT22;673;48.098;14.422;2022-08-30T00:11:48;15.40;99.90
1359;DHT22;673;48.098;14.422;2022-08-30T00:14:17;15.40;99.90
1359;DHT22;673;48.098;14.422;2022-08-30T00:16:44;15.30;99.90
1359;DHT22;673;48.098;14.422;2022-08-30T00:19:11;15.30;99.90
1359;DHT22;673;48.098;14.422;2022-08-30T00:21:38;15.30;99.90
1359;DHT22;673;48.098;14.422;2022-08-30T00:24:06;15.30;99.90
1359;DHT22;673;48.098;14.422;2022-08-30T00:26:34;15.40;99.90
1359;DHT22;673;48.098;14.422;2022-08-30T00:29:01;15.40;99.90
1359;DHT22;673;48.098;14.422;2022-08-30T00:31:28;15.40;99.90
1359;DHT22;673;48.098;14.422;2022-08-30T00:33:55;15.30;99.90
1359;DHT22;673;48.098;14.422;2022-08-30T00:36:22;15.30;99.90
1359;DHT22;673;48.098;14.422;2022-08-30T00:38:49;15.30;99.90
1359;DHT22;673;48.098;14.422;2022-08-30T00:41:16;15.30;99.90
1359;DHT22;673;48.098;14.422;2022-08-30T00:43:45;15.20;99.90
1359;DHT22;673;48.098;14.422;2022-08-30T00:46:12;15.10;99.90
1359;DHT22;673;48.098;14.422;2022-08-30T00:48:41;15.00;99.90
1359;DHT22;673;48.098;14.422;2022-08-30T00:51:12;15.00;99.90
1359;DHT22;673;48.098;14.422;2022-08-30T00:53:42;14.90;99.90
1359;DHT22;673;48.098;14.422;2022-08-30T00:56:10;15.30;99.90
1359;DHT22;673;48.098;14.422;2022-08-30T00:58:40;15.20;99.90
1359;DHT22;673;48.098;14.422;2022-08-30T01:01:10;15.10;99.90
1359;DHT22;673;48.098;14.422;2022-08-30T01:03:37;15.10;99.90
1359;DHT22;673;48.098;14.422;2022-08-30T01:06:05;15.10;99.90
1359;DHT22;673;48.098;14.422;2022-08-30T01:08:33;15.10;99.90
1359;DHT22;673;48.098;14.422;2022-08-30T01:11:02;15.10;99.90
1359;DHT22;673;48.098;14.422;2022-08-30T01:13:30;15.10;99.90
1359;DHT22;673;48.098;14.422;2022-08-30T01:15:59;15.10;99.90
1359;DHT22;673;48.098;14.422;2022-08-30T01:18:28;15.00;99.90
1359;DHT22;673;48.098;14.422;2022-08-30T01:21:02;15.00;99.90
1359;DHT22;673;48.098;14.422;2022-08-30T01:23:34;15.00;99.90
1359;DHT22;673;48.098;14.422;2022-08-30T01:26:03;14.90;99.90
1359;DHT22;673;48.098;14.422;2022-08-30T01:28:32;14.90;99.90
1359;DHT22;673;48.098;14.422;2022-08-30T01:31:00;14.90;99.90
1359;DHT22;673;48.098;14.422;2022-08-30T01:33:27;15.00;99.90
1359;DHT22;673;48.098;14.422;2022-08-30T01:35:57;15.00;99.90
1359;DHT22;673;48.098;14.422;2022-08-30T01:38:27;14.90;99.90
1359;DHT22;673;48.098;14.422;2022-08-30T01:41:04;14.80;99.90
1359;DHT22;673;48.098;14.422;2022-08-30T01:43:33;14.70;99.90
1359;DHT22;673;48.098;14.422;2022-08-30T01:46:01;14.80;99.90
1359;DHT22;673;48.098;14.422;2022-08-30T01:48:28;15.00;99.90
1359;DHT22;673;48.098;14.422;2022-08-30T01:50:55;14.90;99.90
1359;DHT22;673;48.098;14.422;2022-08-30T01:53:22;14.80;99.90
1359;DHT22;673;48.098;14.422;2022-08-30T01:55:49;14.80;99.90
1359;DHT22;673;48.098;14.422;2022-08-30T01:58:17;14.80;99.90
1359;DHT22;673;48.098;14.422;2022-08-30T02:00:44;14.80;99.90
1359;DHT22;673;48.098;14.422;2022-08-30T02:03:11;14.70;99.90
1359;DHT22;673;48.098;14.422;2022-08-30T02:05:38;14.70;99.90
1359;DHT22;673;48.098;14.422;2022-08-30T02:08:05;14.80;99.90
1359;DHT22;673;48.098;14.422;2022-08-30T02:10:32;14.90;99.90
1359;DHT22;673;48.098;14.422;2022-08-30T02:12:59;14.90;99.90
1359;DHT22;673;48.098;14.422;2022-08-30T02:15:28;14.90;99.90
1359;DHT22;673;48.098;14.422;2022-08-30T02:17:55;14.90;99.90
1359;DHT22;673;48.098;14.422;2022-08-30T02:20:22;14.70;99.90
1359;DHT22;673;48.098;14.422;2022-08-30T02:22:49;14.70;99.90
1359;DHT22;673;48.098;14.422;2022-08-30T02:25:16;14.80;99.90
1359;DHT22;673;48.098;14.422;2022-08-30T02:27:43;14.70;99.90
1359;DHT22;673;48.098;14.422;2022-08-30T02:30:11;14.70;99.90
1359;DHT22;673;48.098;14.422;2022-08-30T02:32:39;14.70;99.90
1359;DHT22;673;48.098;14.422;2022-08-30T02:35:07;14.50;99.90
1359;DHT22;673;48.098;14.422;2022-08-30T02:37:35;14.50;99.90
1359;DHT22;673;48.098;14.422;2022-08-30T02:40:03;14.60;99.90
1359;DHT22;673;48.098;14.422;2022-08-30T02:42:30;14.60;99.90
1359;DHT22;673;48.098;14.422;2022-08-30T02:44:57;14.70;99.90
1359;DHT22;673;48.098;14.422;2022-08-30T02:47:25;14.80;99.90
1359;DHT22;673;48.098;14.422;2022-08-30T02:49:53;14.80;99.90
1359;DHT22;673;48.098;14.422;2022-08-30T02:52:20;14.60;99.90
1359;DHT22;673;48.098;14.422;2022-08-30T02:54:47;14.60;99.90
1359;DHT22;673;48.098;14.422;2022-08-30T02:57:14;14.60;99.90
1359;DHT22;673;48.098;14.422;2022-08-30T02:59:41;14.60;99.90
1359;DHT22;673;48.098;14.422;2022-08-30T03:02:10;14.50;99.90
1359;DHT22;673;48.098;14.422;2022-08-30T03:04:38;14.50;99.90
1359;DHT22;673;48.098;14.422;2022-08-30T03:07:07;14.40;99.90
1359;DHT22;673;48.098;14.422;2022-08-30T03:09:34;14.30;99.90
1359;DHT22;673;48.098;14.422;2022-08-30T03:12:02;14.30;99.90
1359;DHT22;673;48.098;14.422;2022-08-30T03:14:30;14.30;99.90
1359;DHT22;673;48.098;14.422;2022-08-30T03:16:57;14.20;99.90
1359;DHT22;673;48.098;14.422;2022-08-30T03:19:24;14.20;99.90
1359;DHT22;673;48.098;14.422;2022-08-30T03:21:51;14.10;99.90
1359;DHT22;673;48.098;14.422;2022-08-30T03:24:20;14.20;99.90
1359;DHT22;673;48.098;14.422;2022-08-30T03:26:47;14.10;99.90
1359;DHT22;673;48.098;14.422;2022-08-30T03:29:14;14.10;99.90
1359;DHT22;673;48.098;14.422;2022-08-30T03:31:41;14.00;99.90
1359;DHT22;673;48.098;14.422;2022-08-30T03:34:08;14.00;99.90
1359;DHT22;673;48.098;14.422;2022-08-30T03:36:36;13.90;99.90
1359;DHT22;673;48.098;14.422;2022-08-30T03:39:04;14.00;99.90
1359;DHT22;673;48.098;14.422;2022-08-30T03:41:33;14.10;99.90
1359;DHT22;673;48.098;14.422;2022-08-30T03:44:01;14.10;99.90
1359;DHT22;673;48.098;14.422;2022-08-30T03:46:28;14.10;99.90
1359;DHT22;673;48.098;14.422;2022-08-30T03:48:55;14.20;99.90
1359;DHT22;673;48.098;14.422;2022-08-30T03:51:22;14.10;99.90
1359;DHT22;673;48.098;14.422;2022-08-30T03:53:49;14.10;99.90
1359;DHT22;673;48.098;14.422;2022-08-30T03:56:17;14.20;99.90
1359;DHT22;673;48.098;14.422;2022-08-30T03:58:46;14.10;99.90
1359;DHT22;673;48.098;14.422;2022-08-30T04:01:13;14.10;99.90
1359;DHT22;673;48.098;14.422;2022-08-30T04:03:40;14.10;99.90
1359;DHT22;673;48.098;14.422;2022-08-30T04:06:07;14.10;99.90
1359;DHT22;673;48.098;14.422;2022-08-30T04:08:34;14.10;99.90
1359;DHT22;673;48.098;14.422;2022-08-30T04:11:01;14.00;99.90
1359;DHT22;673;48.098;14.422;2022-08-30T04:13:28;14.00;99.90
1359;DHT22;673;48.098;14.422;2022-08-30T04:15:57;13.90;99.90
1359;DHT22;673;48.098;14.422;2022-08-30T04:18:24;14.00;99.90
1359;DHT22;673;48.098;14.422;2022-08-30T04:20:51;13.90;99.90
1359;DHT22;673;48.098;14.422;2022-08-30T04:23:19;13.80;99.90
1359;DHT22;673;48.098;14.422;2022-08-30T04:25:46;13.70;99.90
1359;DHT22;673;48.098;14.422;2022-08-30T04:28:13;13.70;99.90
1359;DHT22;673;48.098;14.422;2022-08-30T04:30:42;13.70;99.90
1359;DHT22;673;48.098;14.422;2022-08-30T04:33:12;13.70;99.90
1359;DHT22;673;48.098;14.422;2022-08-30T04:35:40;13.70;99.90
1359;DHT22;673;48.098;14.422;2022-08-30T04:38:08;13.80;99.90
1359;DHT22;673;48.098;14.422;2022-08-30T04:40:35;13.90;99.90
1359;DHT22;673;48.098;14.422;2022-08-30T04:43:03;13.90;99.90
1359;DHT22;673;48.098;14.422;2022-08-30T04:45:30;14.00;99.90
1359;DHT22;673;48.098;14.422;2022-08-30T04:47:57;13.90;99.90
1359;DHT22;673;48.098;14.422;2022-08-30T04:50:25;14.00;99.90
1359;DHT22;673;48.098;14.422;2022-08-30T04:52:52;14.10;99.90
1359;DHT22;673;48.098;14.422;2022-08-30T04:55:20;14.10;99.90
1359;DHT22;673;48.098;14.422;2022-08-30T04:57:49;14.10;99.90
1359;DHT22;673;48.098;14.422;2022-08-30T05:00:17;14.10;99.90
1359;DHT22;673;48.098;14.422;2022-08-30T05:02:45;14.20;99.90
1359;DHT22;673;48.098;14.422;2022-08-30T05:05:12;14.30;99.90
1359;DHT22;673;48.098;14.422;2022-08-30T05:07:58;14.40;99.90
1359;DHT22;673;48.098;14.422;2022-08-30T05:10:25;14.40;99.90
1359;DHT22;673;48.098;14.422;2022-08-30T05:12:53;14.50;99.90
1359;DHT22;673;48.098;14.422;2022-08-30T05:15:20;14.40;99.90
1359;DHT22;673;48.098;14.422;2022-08-30T05:17:50;14.50;99.90
1359;DHT22;673;48.098;14.422;2022-08-30T05:20:19;14.70;99.90
1359;DHT22;673;48.098;14.422;2022-08-30T05:22:46;14.70;99.90
1359;DHT22;673;48.098;14.422;2022-08-30T05:25:23;14.80;99.90
1359;DHT22;673;48.098;14.422;2022-08-30T05:27:51;14.80;99.90
1359;DHT22;673;48.098;14.422;2022-08-30T05:30:19;14.80;99.90
1359;DHT22;673;48.098;14.422;2022-08-30T05:32:46;14.90;99.90
1359;DHT22;673;48.098;14.422;2022-08-30T05:35:14;14.90;99.90
1359;DHT22;673;48.098;14.422;2022-08-30T05:37:42;14.90;99.90
1359;DHT22;673;48.098;14.422;2022-08-30T05:40:10;15.00;99.90
1359;DHT22;673;48.098;14.422;2022-08-30T05:42:39;15.00;99.90
1359;DHT22;673;48.098;14.422;2022-08-30T05:45:08;15.00;99.90
1359;DHT22;673;48.098;14.422;2022-08-30T05:47:35;15.10;99.90
1359;DHT22;673;48.098;14.422;2022-08-30T05:50:04;15.10;99.90
1359;DHT22;673;48.098;14.422;2022-08-30T05:52:34;15.10;99.90
1359;DHT22;673;48.098;14.422;2022-08-30T05:55:01;15.20;99.90
1359;DHT22;673;48.098;14.422;2022-08-30T05:57:31;15.40;99.90
1359;DHT22;673;48.098;14.422;2022-08-30T06:00:01;15.50;99.90
1359;DHT22;673;48.098;14.422;2022-08-30T06:02:28;15.70;99.90
1359;DHT22;673;48.098;14.422;2022-08-30T06:04:55;15.80;99.90
1359;DHT22;673;48.098;14.422;2022-08-30T06:07:22;15.80;99.90
1359;DHT22;673;48.098;14.422;2022-08-30T06:09:49;16.00;99.90
1359;DHT22;673;48.098;14.422;2022-08-30T06:12:16;16.10;99.90
1359;DHT22;673;48.098;14.422;2022-08-30T06:14:43;16.20;99.90
1359;DHT22;673;48.098;14.422;2022-08-30T06:17:12;16.10;99.90
1359;DHT22;673;48.098;14.422;2022-08-30T06:19:39;16.20;99.90
1359;DHT22;673;48.098;14.422;2022-08-30T06:22:06;16.20;99.90
1359;DHT22;673;48.098;14.422;2022-08-30T06:24:33;16.30;99.90
1359;DHT22;673;48.098;14.422;2022-08-30T06:27:01;16.40;99.90
1359;DHT22;673;48.098;14.422;2022-08-30T06:29:29;16.60;99.90
1359;DHT22;673;48.098;14.422;2022-08-30T06:31:56;16.80;99.90
1359;DHT22;673;48.098;14.422;2022-08-30T06:34:24;17.00;99.90
1359;DHT22;673;48.098;14.422;2022-08-30T06:36:53;17.20;99.90
1359;DHT22;673;48.098;14.422;2022-08-30T06:39:20;17.20;99.90
1359;DHT22;673;48.098;14.422;2022-08-30T06:41:47;17.50;99.90
1359;DHT22;673;48.098;14.422;2022-08-30T06:44:14;17.50;99.90
1359;DHT22;673;48.098;14.422;2022-08-30T06:46:41;17.60;99.90
1359;DHT22;673;48.098;14.422;2022-08-30T06:49:08;17.70;99.90
1359;DHT22;673;48.098;14.422;2022-08-30T06:51:38;17.70;99.90
1359;DHT22;673;48.098;14.422;2022-08-30T06:54:06;17.70;99.90
1359;DHT22;673;48.098;14.422;2022-08-30T06:56:33;17.70;99.90
1359;DHT22;673;48.098;14.422;2022-08-30T06:59:00;17.80;99.90
1359;DHT22;673;48.098;14.422;2022-08-30T07:01:28;18.00;99.90
1359;DHT22;673;48.098;14.422;2022-08-30T07:03:56;18.10;99.90
1359;DHT22;673;48.098;14.422;2022-08-30T07:06:24;18.30;99.90
1359;DHT22;673;48.098;14.422;2022-08-30T07:08:52;18.50;99.90
1359;DHT22;673;48.098;14.422;2022-08-30T07:11:28;18.30;99.90
1359;DHT22;673;48.098;14.422;2022-08-30T07:13:56;18.50;99.90
1359;DHT22;673;48.098;14.422;2022-08-30T07:16:23;18.30;99.90
1359;DHT22;673;48.098;14.422;2022-08-30T07:18:50;18.40;99.90
1359;DHT22;673;48.098;14.422;2022-08-30T07:21:21;18.40;99.90
1359;DHT22;673;48.098;14.422;2022-08-30T07:23:49;18.80;99.90
1359;DHT22;673;48.098;14.422;2022-08-30T07:26:20;18.90;99.90
1359;DHT22;673;48.098;14.422;2022-08-30T07:28:48;18.90;99.90
1359;DHT22;673;48.098;14.422;2022-08-30T07:31:16;18.70;99.90
1359;DHT22;673;48.098;14.422;2022-08-30T07:33:44;18.80;99.90
1359;DHT22;673;48.098;14.422;2022-08-30T07:36:12;19.00;99.90
1359;DHT22;673;48.098;14.422;2022-08-30T07:38:40;19.10;99.90
1359;DHT22;673;48.098;14.422;2022-08-30T07:41:07;19.10;99.90
1359;DHT22;673;48.098;14.422;2022-08-30T07:43:36;19.20;99.90
1359;DHT22;673;48.098;14.422;2022-08-30T07:46:05;19.20;99.90
1359;DHT22;673;48.098;14.422;2022-08-30T07:48:33;19.10;99.90
1359;DHT22;673;48.098;14.422;2022-08-30T07:51:00;19.40;99.90
1359;DHT22;673;48.098;14.422;2022-08-30T07:53:29;19.60;99.90
1359;DHT22;673;48.098;14.422;2022-08-30T07:55:56;19.90;99.90
1359;DHT22;673;48.098;14.422;2022-08-30T07:58:23;20.10;99.90
1359;DHT22;673;48.098;14.422;2022-08-30T08:00:52;20.30;99.90
1359;DHT22;673;48.098;14.422;2022-08-30T08:03:19;20.30;99.90
1359;DHT22;673;48.098;14.422;2022-08-30T08:05:46;20.50;99.90
1359;DHT22;673;48.098;14.422;2022-08-30T08:08:13;20.50;99.90
1359;DHT22;673;48.098;14.422;2022-08-30T08:10:41;20.30;99.90
1359;DHT22;673;48.098;14.422;2022-08-30T08:13:08;20.30;99.90
1359;DHT22;673;48.098;14.422;2022-08-30T08:15:36;20.20;99.90
1359;DHT22;673;48.098;14.422;2022-08-30T08:18:05;20.50;99.90
1359;DHT22;673;48.098;14.422;2022-08-30T08:20:33;20.90;99.90
1359;DHT22;673;48.098;14.422;2022-08-30T08:23:00;21.10;99.90
1359;DHT22;673;48.098;14.422;2022-08-30T08:25:27;21.20;99.90
1359;DHT22;673;48.098;14.422;2022-08-30T08:27:54;21.30;99.90
1359;DHT22;673;48.098;14.422;2022-08-30T08:30:22;21.30;99.90
1359;DHT22;673;48.098;14.422;2022-08-30T08:32:49;21.40;99.90
1359;DHT22;673;48.098;14.422;2022-08-30T08:35:18;21.50;99.90
1359;DHT22;673;48.098;14.422;2022-08-30T08:37:45;21.80;99.90
1359;DHT22;673;48.098;14.422;2022-08-30T08:40:15;21.90;99.90
1359;DHT22;673;48.098;14.422;2022-08-30T08:43:02;22.00;99.90
1359;DHT22;673;48.098;14.422;2022-08-30T08:45:48;21.30;99.90
1359;DHT22;673;48.098;14.422;2022-08-30T08:48:25;21.50;99.90
1359;DHT22;673;48.098;14.422;2022-08-30T08:50:56;21.60;99.90
1359;DHT22;673;48.098;14.422;2022-08-30T08:53:43;21.90;99.90
1359;DHT22;673;48.098;14.422;2022-08-30T08:56:14;22.00;99.90
1359;DHT22;673;48.098;14.422;2022-08-30T08:58:44;22.10;99.90
1359;DHT22;673;48.098;14.422;2022-08-30T09:01:13;22.20;99.90
1359;DHT22;673;48.098;14.422;2022-08-30T09:03:41;22.30;99.90
1359;DHT22;673;48.098;14.422;2022-08-30T09:06:24;22.60;99.90
1359;DHT22;673;48.098;14.422;2022-08-30T09:08:53;22.60;99.90
1359;DHT22;673;48.098;14.422;2022-08-30T09:11:23;22.60;99.90
1359;DHT22;673;48.098;14.422;2022-08-30T09:13:51;22.60;99.90
1359;DHT22;673;48.098;14.422;2022-08-30T09:16:44;22.70;99.90
1359;DHT22;673;48.098;14.422;2022-08-30T09:22:21;22.90;99.90
1359;DHT22;673;48.098;14.422;2022-08-30T09:24:52;23.00;99.90
1359;DHT22;673;48.098;14.422;2022-08-30T09:27:23;23.00;99.90
1359;DHT22;673;48.098;14.422;2022-08-30T09:30:00;23.00;99.90
1359;DHT22;673;48.098;14.422;2022-08-30T09:32:39;23.20;99.90
1359;DHT22;673;48.098;14.422;2022-08-30T09:35:10;23.30;99.90
1359;DHT22;673;48.098;14.422;2022-08-30T09:37:45;23.20;99.90
1359;DHT22;673;48.098;14.422;2022-08-30T09:40:20;23.30;99.90
1359;DHT22;673;48.098;14.422;2022-08-30T09:43:01;23.60;99.90
1359;DHT22;673;48.098;14.422;2022-08-30T09:45:32;23.40;99.90
1359;DHT22;673;48.098;14.422;2022-08-30T09:48:27;23.30;99.90
1359;DHT22;673;48.098;14.422;2022-08-30T09:51:09;23.60;99.90
1359;DHT22;673;48.098;14.422;2022-08-30T09:53:46;23.80;99.90
1359;DHT22;673;48.098;14.422;2022-08-30T09:56:21;23.60;99.90
1359;DHT22;673;48.098;14.422;2022-08-30T09:59:00;23.50;99.90
1359;DHT22;673;48.098;14.422;2022-08-30T10:01:31;23.60;99.90
1359;DHT22;673;48.098;14.422;2022-08-30T10:04:06;23.60;99.90
1359;DHT22;673;48.098;14.422;2022-08-30T10:06:43;23.80;99.90
1359;DHT22;673;48.098;14.422;2022-08-30T10:09:21;24.00;99.90
1359;DHT22;673;48.098;14.422;2022-08-30T10:11:55;24.20;99.90
1359;DHT22;673;48.098;14.422;2022-08-30T10:14:48;24.00;99.90
1359;DHT22;673;48.098;14.422;2022-08-30T10:17:25;23.80;99.90
1359;DHT22;673;48.098;14.422;2022-08-30T10:20:05;23.90;99.90
1359;DHT22;673;48.098;14.422;2022-08-30T10:22:38;24.00;99.90
1359;DHT22;673;48.098;14.422;2022-08-30T10:25:12;24.40;99.90
1359;DHT22;673;48.098;14.422;2022-08-30T10:27:45;24.20;99.90
1359;DHT22;673;48.098;14.422;2022-08-30T10:30:15;24.30;99.90
1359;DHT22;673;48.098;14.422;2022-08-30T10:32:47;24.10;99.90
1359;DHT22;673;48.098;14.422;2022-08-30T10:35:18;24.20;99.90
1359;DHT22;673;48.098;14.422;2022-08-30T10:37:49;24.20;99.90
1359;DHT22;673;48.098;14.422;2022-08-30T10:40:24;24.40;99.90
1359;DHT22;673;48.098;14.422;2022-08-30T10:43:17;24.30;99.90
1359;DHT22;673;48.098;14.422;2022-08-30T10:45:49;24.50;99.90
1359;DHT22;673;48.098;14.422;2022-08-30T10:48:22;24.60;99.90
1359;DHT22;673;48.098;14.422;2022-08-30T10:50:53;24.70;99.90
1359;DHT22;673;48.098;14.422;2022-08-30T10:53:28;25.00;99.90
1359;DHT22;673;48.098;14.422;2022-08-30T10:56:02;25.00;99.90
1359;DHT22;673;48.098;14.422;2022-08-30T10:58:29;25.30;99.90
1359;DHT22;673;48.098;14.422;2022-08-30T11:01:14;25.50;99.30
1359;DHT22;673;48.098;14.422;2022-08-30T11:06:51;25.30;98.60
1359;DHT22;673;48.098;14.422;2022-08-30T11:12:29;25.10;99.80
1359;DHT22;673;48.098;14.422;2022-08-30T11:14:58;25.40;99.00
1359;DHT22;673;48.098;14.422;2022-08-30T11:17:29;25.40;98.60
1359;DHT22;673;48.098;14.422;2022-08-30T11:19:59;25.40;99.90
1359;DHT22;673;48.098;14.422;2022-08-30T11:22:30;25.30;98.80
1359;DHT22;673;48.098;14.422;2022-08-30T11:25:00;25.20;98.90
1359;DHT22;673;48.098;14.422;2022-08-30T11:27:49;25.00;98.80
1359;DHT22;673;48.098;14.422;2022-08-30T11:30:45;25.10;99.20
1359;DHT22;673;48.098;14.422;2022-08-30T11:33:39;25.20;98.60
1359;DHT22;673;48.098;14.422;2022-08-30T11:36:07;25.10;98.50
1359;DHT22;673;48.098;14.422;2022-08-30T11:38:57;25.40;99.90
1359;DHT22;673;48.098;14.422;2022-08-30T11:41:31;25.40;98.00
1359;DHT22;673;48.098;14.422;2022-08-30T11:44:26;25.40;97.00
1359;DHT22;673;48.098;14.422;2022-08-30T11:46:55;25.50;98.60
1359;DHT22;673;48.098;14.422;2022-08-30T11:49:44;25.50;96.50
1359;DHT22;673;48.098;14.422;2022-08-30T11:52:33;25.60;97.30
1359;DHT22;673;48.098;14.422;2022-08-30T11:55:33;25.60;96.00
1359;DHT22;673;48.098;14.422;2022-08-30T11:58:18;25.60;96.40
1359;DHT22;673;48.098;14.422;2022-08-30T12:01:13;25.60;94.60
1359;DHT22;673;48.098;14.422;2022-08-30T12:03:41;25.40;95.50
1359;DHT22;673;48.098;14.422;2022-08-30T12:06:09;25.60;96.20
1359;DHT22;673;48.098;14.422;2022-08-30T12:08:55;25.50;95.70
1359;DHT22;673;48.098;14.422;2022-08-30T12:11:56;25.70;96.10
1359;DHT22;673;48.098;14.422;2022-08-30T12:14:45;26.10;94.20
1359;DHT22;673;48.098;14.422;2022-08-30T12:17:21;26.30;92.30
1359;DHT22;673;48.098;14.422;2022-08-30T12:20:19;26.40;92.60
1359;DHT22;673;48.098;14.422;2022-08-30T12:22:48;26.30;92.50
1359;DHT22;673;48.098;14.422;2022-08-30T12:25:19;26.50;90.90
1359;DHT22;673;48.098;14.422;2022-08-30T12:27:48;26.60;91.30
1359;DHT22;673;48.098;14.422;2022-08-30T12:30:24;26.40;90.10
1359;DHT22;673;48.098;14.422;2022-08-30T12:32:53;26.40;91.20
1359;DHT22;673;48.098;14.422;2022-08-30T12:35:25;26.30;91.70
1359;DHT22;673;48.098;14.422;2022-08-30T12:37:57;26.20;92.30
1359;DHT22;673;48.098;14.422;2022-08-30T12:40:25;26.00;92.30
1359;DHT22;673;48.098;14.422;2022-08-30T12:42:54;26.00;90.80
1359;DHT22;673;48.098;14.422;2022-08-30T12:45:24;26.00;91.90
1359;DHT22;673;48.098;14.422;2022-08-30T12:47:57;26.00;90.20
1359;DHT22;673;48.098;14.422;2022-08-30T12:50:27;26.10;91.10
1359;DHT22;673;48.098;14.422;2022-08-30T12:52:59;26.10;90.50
1359;DHT22;673;48.098;14.422;2022-08-30T12:55:29;26.20;90.20
1359;DHT22;673;48.098;14.422;2022-08-30T12:57:59;26.20;90.50
1359;DHT22;673;48.098;14.422;2022-08-30T13:00:28;26.10;85.40
1359;DHT22;673;48.098;14.422;2022-08-30T13:03:32;26.20;89.90
1359;DHT22;673;48.098;14.422;2022-08-30T13:06:08;26.50;90.30
1359;DHT22;673;48.098;14.422;2022-08-30T13:08:46;26.80;86.30
1359;DHT22;673;48.098;14.422;2022-08-30T13:11:24;26.90;84.70
1359;DHT22;673;48.098;14.422;2022-08-30T13:13:53;26.70;86.40
1359;DHT22;673;48.098;14.422;2022-08-30T13:16:25;26.50;83.50
1359;DHT22;673;48.098;14.422;2022-08-30T13:19:14;26.50;84.70
1359;DHT22;673;48.098;14.422;2022-08-30T13:21:48;26.20;85.90
1359;DHT22;673;48.098;14.422;2022-08-30T13:24:16;26.30;87.70
1359;DHT22;673;48.098;14.422;2022-08-30T13:26:43;26.40;87.70
1359;DHT22;673;48.098;14.422;2022-08-30T13:29:15;26.30;86.60
1359;DHT22;673;48.098;14.422;2022-08-30T13:31:43;26.20;88.40
1359;DHT22;673;48.098;14.422;2022-08-30T13:34:12;26.30;90.00
1359;DHT22;673;48.098;14.422;2022-08-30T13:36:44;26.40;87.50
1359;DHT22;673;48.098;14.422;2022-08-30T13:39:11;26.50;85.10
1359;DHT22;673;48.098;14.422;2022-08-30T13:41:39;26.60;86.90
1359;DHT22;673;48.098;14.422;2022-08-30T13:44:06;26.90;86.30
1359;DHT22;673;48.098;14.422;2022-08-30T13:46:33;27.10;87.00
1359;DHT22;673;48.098;14.422;2022-08-30T13:49:07;27.00;83.50
1359;DHT22;673;48.098;14.422;2022-08-30T13:51:37;26.80;86.90
1359;DHT22;673;48.098;14.422;2022-08-30T13:54:04;26.80;86.80
1359;DHT22;673;48.098;14.422;2022-08-30T13:56:31;26.90;86.40
1359;DHT22;673;48.098;14.422;2022-08-30T13:58:59;26.80;85.80
1359;DHT22;673;48.098;14.422;2022-08-30T14:01:26;27.00;86.00
1359;DHT22;673;48.098;14.422;2022-08-30T14:03:53;27.00;88.90
1359;DHT22;673;48.098;14.422;2022-08-30T14:06:21;27.00;86.70
1359;DHT22;673;48.098;14.422;2022-08-30T14:08:52;27.10;85.60
1359;DHT22;673;48.098;14.422;2022-08-30T14:11:20;27.10;84.70
1359;DHT22;673;48.098;14.422;2022-08-30T14:13:48;26.90;84.80
1359;DHT22;673;48.098;14.422;2022-08-30T14:16:16;26.80;84.80
1359;DHT22;673;48.098;14.422;2022-08-30T14:18:44;26.60;85.70
1359;DHT22;673;48.098;14.422;2022-08-30T14:21:11;26.60;83.40
1359;DHT22;673;48.098;14.422;2022-08-30T14:23:38;26.70;83.50
1359;DHT22;673;48.098;14.422;2022-08-30T14:26:10;26.80;80.30
1359;DHT22;673;48.098;14.422;2022-08-30T14:28:39;26.80;79.30
1359;DHT22;673;48.098;14.422;2022-08-30T14:31:06;26.80;78.90
1359;DHT22;673;48.098;14.422;2022-08-30T14:33:33;26.80;78.30
1359;DHT22;673;48.098;14.422;2022-08-30T14:36:01;26.60;77.40
1359;DHT22;673;48.098;14.422;2022-08-30T14:38:28;26.40;80.60
1359;DHT22;673;48.098;14.422;2022-08-30T14:40:55;26.50;82.00
1359;DHT22;673;48.098;14.422;2022-08-30T14:43:23;26.50;82.20
1359;DHT22;673;48.098;14.422;2022-08-30T14:45:50;26.60;84.90
1359;DHT22;673;48.098;14.422;2022-08-30T14:48:17;26.30;82.80
1359;DHT22;673;48.098;14.422;2022-08-30T14:50:44;26.20;80.40
1359;DHT22;673;48.098;14.422;2022-08-30T14:53:11;26.30;80.60
1359;DHT22;673;48.098;14.422;2022-08-30T14:55:39;26.30;81.20
1359;DHT22;673;48.098;14.422;2022-08-30T14:58:06;26.40;77.30
1359;DHT22;673;48.098;14.422;2022-08-30T15:00:37;26.20;79.70
1359;DHT22;673;48.098;14.422;2022-08-30T15:03:04;26.20;80.30
1359;DHT22;673;48.098;14.422;2022-08-30T15:05:33;26.20;82.10
1359;DHT22;673;48.098;14.422;2022-08-30T15:08:00;26.30;82.80
1359;DHT22;673;48.098;14.422;2022-08-30T15:10:27;26.40;79.60
1359;DHT22;673;48.098;14.422;2022-08-30T15:12:54;26.40;79.10
1359;DHT22;673;48.098;14.422;2022-08-30T15:15:21;26.40;81.60
1359;DHT22;673;48.098;14.422;2022-08-30T15:17:50;26.30;85.90
1359;DHT22;673;48.098;14.422;2022-08-30T15:20:17;26.10;84.00
1359;DHT22;673;48.098;14.422;2022-08-30T15:22:45;26.00;82.00
1359;DHT22;673;48.098;14.422;2022-08-30T15:25:12;26.20;82.60
1359;DHT22;673;48.098;14.422;2022-08-30T15:27:39;26.10;82.20
1359;DHT22;673;48.098;14.422;2022-08-30T15:30:08;26.10;82.10
1359;DHT22;673;48.098;14.422;2022-08-30T15:32:35;26.30;83.30
1359;DHT22;673;48.098;14.422;2022-08-30T15:35:04;26.40;83.40
1359;DHT22;673;48.098;14.422;2022-08-30T15:37:32;26.10;83.60
1359;DHT22;673;48.098;14.422;2022-08-30T15:39:59;26.10;84.80
1359;DHT22;673;48.098;14.422;2022-08-30T15:42:26;26.40;84.70
1359;DHT22;673;48.098;14.422;2022-08-30T15:44:54;26.80;82.90
1359;DHT22;673;48.098;14.422;2022-08-30T15:47:23;27.10;83.00
1359;DHT22;673;48.098;14.422;2022-08-30T15:49:53;27.50;81.90
1359;DHT22;673;48.098;14.422;2022-08-30T15:52:23;27.90;79.60
1359;DHT22;673;48.098;14.422;2022-08-30T15:54:51;27.70;79.40
1359;DHT22;673;48.098;14.422;2022-08-30T15:57:18;27.80;77.30
1359;DHT22;673;48.098;14.422;2022-08-30T15:59:45;27.90;76.70
1359;DHT22;673;48.098;14.422;2022-08-30T16:02:12;28.00;75.80
1359;DHT22;673;48.098;14.422;2022-08-30T16:04:39;28.10;76.60
1359;DHT22;673;48.098;14.422;2022-08-30T16:07:07;28.10;75.00
1359;DHT22;673;48.098;14.422;2022-08-30T16:09:36;28.00;75.00
1359;DHT22;673;48.098;14.422;2022-08-30T16:12:04;27.70;75.60
1359;DHT22;673;48.098;14.422;2022-08-30T16:14:33;27.20;76.50
1359;DHT22;673;48.098;14.422;2022-08-30T16:17:00;27.30;76.60
1359;DHT22;673;48.098;14.422;2022-08-30T16:19:27;27.10;78.10
1359;DHT22;673;48.098;14.422;2022-08-30T16:21:55;27.30;78.60
1359;DHT22;673;48.098;14.422;2022-08-30T16:24:22;27.50;78.90
1359;DHT22;673;48.098;14.422;2022-08-30T16:26:52;27.30;79.10
1359;DHT22;673;48.098;14.422;2022-08-30T16:29:19;27.30;77.50
1359;DHT22;673;48.098;14.422;2022-08-30T16:31:46;27.00;76.80